sensor_id;sensor_type;location;lat;lon;timestamp;pressure;altitude;pressure_sealevel;temperature;humidity
42247;BME280;27913;42.722;23.268;2023-01-31T00:02:21;94550.25;;;-1.96;85.41
42247;BME280;27913;42.722;23.268;2023-01-31T00:04:46;94550.81;;;-1.92;85.38
42247;BME280;27913;42.722;23.268;2023-01-31T00:07:12;94533.84;;;-2.06;85.81
42247;BME280;27913;42.722;23.268;2023-01-31T00:09:37;94488.81;;;-2.35;86.48
42247;BME280;27913;42.722;23.268;2023-01-31T00:12:03;94541.56;;;-1.95;86.44
42247;BME280;27913;42.722;23.268;2023-01-31T00:14:28;94558.69;;;-1.93;86.05
42247;BME280;27913;42.722;23.268;2023-01-31T00:16:54;94555.41;;;-1.96;85.37
42247;BME280;27913;42.722;23.268;2023-01-31T00:19:19;94494.78;;;-2.46;86.22
42247;BME280;27913;42.722;23.268;2023-01-31T00:21:45;94565.50;;;-2.04;87.18
42247;BME280;27913;42.722;23.268;2023-01-31T00:24:12;94397.75;;;-3.01;87.86
42247;BME280;27913;42.722;23.268;2023-01-31T00:26:38;94546.16;;;-2.10;88.31
42247;BME280;27913;42.722;23.268;2023-01-31T00:29:04;94471.44;;;-2.65;88.52
42247;BME280;27913;42.722;23.268;2023-01-31T00:31:32;94560.91;;;-2.12;88.50
42247;BME280;27913;42.722;23.268;2023-01-31T00:33:58;94551.31;;;-2.10;88.65
42247;BME280;27913;42.722;23.268;2023-01-31T00:36:32;94555.19;;;-2.15;89.01
42247;BME280;27913;42.722;23.268;2023-01-31T00:38:59;94253.75;;;-3.93;88.71
42247;BME280;27913;42.722;23.268;2023-01-31T00:41:27;94558.44;;;-2.02;88.44
42247;BME280;27913;42.722;23.268;2023-01-31T00:43:53;94554.22;;;-2.03;88.28
42247;BME280;27913;42.722;23.268;2023-01-31T00:46:19;94571.22;;;-2.00;88.22
42247;BME280;27913;42.722;23.268;2023-01-31T00:48:46;94548.38;;;-2.05;89.73
42247;BME280;27913;42.722;23.268;2023-01-31T00:51:12;94548.03;;;-2.00;89.69
42247;BME280;27913;42.722;23.268;2023-01-31T00:53:38;94549.66;;;-1.99;89.58
42247;BME280;27913;42.722;23.268;2023-01-31T00:56:06;94545.22;;;-1.97;88.47
42247;BME280;27913;42.722;23.268;2023-01-31T00:58:33;94545.47;;;-2.12;89.38
42247;BME280;27913;42.722;23.268;2023-01-31T01:03:34;94566.78;;;-2.10;89.64
42247;BME280;27913;42.722;23.268;2023-01-31T01:06:00;94384.78;;;-3.22;89.93
42247;BME280;27913;42.722;23.268;2023-01-31T01:08:27;94369.81;;;-3.29;89.30
42247;BME280;27913;42.722;23.268;2023-01-31T01:10:53;94502.66;;;-2.47;89.45
42247;BME280;27913;42.722;23.268;2023-01-31T01:13:18;94563.50;;;-2.00;89.23
42247;BME280;27913;42.722;23.268;2023-01-31T01:15:44;94489.44;;;-2.43;89.08
42247;BME280;27913;42.722;23.268;2023-01-31T01:18:09;94462.63;;;-2.63;88.74
42247;BME280;27913;42.722;23.268;2023-01-31T01:20:35;94548.25;;;-2.03;88.57
42247;BME280;27913;42.722;23.268;2023-01-31T01:23:01;94499.00;;;-2.33;88.73
42247;BME280;27913;42.722;23.268;2023-01-31T01:25:27;94531.63;;;-1.99;88.27
42247;BME280;27913;42.722;23.268;2023-01-31T01:27:52;94483.09;;;-2.38;88.72
42247;BME280;27913;42.722;23.268;2023-01-31T01:30:18;94501.19;;;-2.17;88.66
42247;BME280;27913;42.722;23.268;2023-01-31T01:32:45;94315.56;;;-3.25;88.45
42247;BME280;27913;42.722;23.268;2023-01-31T01:35:11;94512.16;;;-2.03;88.42
42247;BME280;27913;42.722;23.268;2023-01-31T01:37:37;94482.59;;;-2.21;87.48
42247;BME280;27913;42.722;23.268;2023-01-31T01:40:03;94527.94;;;-1.85;88.23
42247;BME280;27913;42.722;23.268;2023-01-31T01:42:32;94527.38;;;-1.89;88.42
42247;BME280;27913;42.722;23.268;2023-01-31T01:45:00;94407.75;;;-2.63;87.52
42247;BME280;27913;42.722;23.268;2023-01-31T01:47:46;94550.06;;;-1.83;85.01
42247;BME280;27913;42.722;23.268;2023-01-31T01:53:02;94548.97;;;-1.68;82.12
42247;BME280;27913;42.722;23.268;2023-01-31T01:55:33;94403.75;;;-2.56;81.35
42247;BME280;27913;42.722;23.268;2023-01-31T01:58:28;94555.16;;;-1.60;80.64
42247;BME280;27913;42.722;23.268;2023-01-31T02:00:52;94556.69;;;-1.57;80.24
42247;BME280;27913;42.722;23.268;2023-01-31T02:03:18;94536.31;;;-1.60;79.91
42247;BME280;27913;42.722;23.268;2023-01-31T02:05:47;94362.13;;;-2.73;79.38
42247;BME280;27913;42.722;23.268;2023-01-31T02:08:16;94566.50;;;-1.51;79.70
42247;BME280;27913;42.722;23.268;2023-01-31T02:10:48;94570.84;;;-1.51;79.84
42247;BME280;27913;42.722;23.268;2023-01-31T02:13:15;94551.59;;;-1.47;80.45
42247;BME280;27913;42.722;23.268;2023-01-31T02:15:42;94559.34;;;-1.47;79.39
42247;BME280;27913;42.722;23.268;2023-01-31T02:18:08;94557.59;;;-1.47;79.91
42247;BME280;27913;42.722;23.268;2023-01-31T02:23:39;94441.09;;;-2.17;78.90
42247;BME280;27913;42.722;23.268;2023-01-31T02:39:29;94500.31;;;-1.95;78.41
42247;BME280;27913;42.722;23.268;2023-01-31T02:42:17;94546.38;;;-1.57;78.43
42247;BME280;27913;42.722;23.268;2023-01-31T02:45:04;94539.09;;;-1.63;78.84
42247;BME280;27913;42.722;23.268;2023-01-31T02:52:52;94480.84;;;-2.20;80.76
42247;BME280;27913;42.722;23.268;2023-01-31T02:55:26;94465.97;;;-2.28;81.13
42247;BME280;27913;42.722;23.268;2023-01-31T02:58:15;94533.13;;;-1.97;80.92
42247;BME280;27913;42.722;23.268;2023-01-31T03:00:43;94532.19;;;-2.07;81.69
42247;BME280;27913;42.722;23.268;2023-01-31T03:03:21;94460.19;;;-2.64;82.24
42247;BME280;27913;42.722;23.268;2023-01-31T03:11:16;94627.53;;;-1.73;82.78
42247;BME280;27913;42.722;23.268;2023-01-31T03:13:54;94561.38;;;-2.07;82.41
42247;BME280;27913;42.722;23.268;2023-01-31T03:16:30;94567.16;;;-2.14;83.95
42247;BME280;27913;42.722;23.268;2023-01-31T03:19:15;94623.19;;;-1.72;84.79
42247;BME280;27913;42.722;23.268;2023-01-31T03:21:48;94623.88;;;-1.70;84.51
42247;BME280;27913;42.722;23.268;2023-01-31T03:24:16;94636.56;;;-1.67;83.63
42247;BME280;27913;42.722;23.268;2023-01-31T03:26:46;94637.09;;;-1.63;83.18
42247;BME280;27913;42.722;23.268;2023-01-31T03:29:14;94642.84;;;-1.60;83.17
42247;BME280;27913;42.722;23.268;2023-01-31T03:31:47;94631.22;;;-1.54;83.31
42247;BME280;27913;42.722;23.268;2023-01-31T03:34:14;94627.03;;;-1.66;83.79
42247;BME280;27913;42.722;23.268;2023-01-31T03:36:49;94595.34;;;-2.01;84.35
42247;BME280;27913;42.722;23.268;2023-01-31T03:39:37;94642.38;;;-1.65;85.10
42247;BME280;27913;42.722;23.268;2023-01-31T03:45:10;94644.03;;;-1.64;86.17
42247;BME280;27913;42.722;23.268;2023-01-31T03:47:40;94605.53;;;-2.00;87.06
42247;BME280;27913;42.722;23.268;2023-01-31T03:50:10;94626.84;;;-1.86;87.90
42247;BME280;27913;42.722;23.268;2023-01-31T03:52:41;94656.69;;;-1.72;88.24
42247;BME280;27913;42.722;23.268;2023-01-31T03:55:24;94562.34;;;-2.42;89.21
42247;BME280;27913;42.722;23.268;2023-01-31T03:57:54;94656.25;;;-1.77;89.65
42247;BME280;27913;42.722;23.268;2023-01-31T04:00:22;94660.47;;;-1.76;90.17
42247;BME280;27913;42.722;23.268;2023-01-31T04:02:53;94620.06;;;-2.10;90.66
42247;BME280;27913;42.722;23.268;2023-01-31T04:05:23;94665.06;;;-1.80;90.99
42247;BME280;27913;42.722;23.268;2023-01-31T04:07:55;94655.19;;;-1.86;91.06
42247;BME280;27913;42.722;23.268;2023-01-31T04:10:21;94614.09;;;-2.22;91.16
42247;BME280;27913;42.722;23.268;2023-01-31T04:12:46;94597.34;;;-2.28;90.58
42247;BME280;27913;42.722;23.268;2023-01-31T04:15:13;94501.50;;;-2.77;90.38
42247;BME280;27913;42.722;23.268;2023-01-31T04:17:38;94623.47;;;-2.10;90.93
42247;BME280;27913;42.722;23.268;2023-01-31T04:20:04;94593.03;;;-2.27;91.05
42247;BME280;27913;42.722;23.268;2023-01-31T04:22:30;94643.50;;;-1.90;91.08
42247;BME280;27913;42.722;23.268;2023-01-31T04:24:56;94675.25;;;-1.67;91.51
42247;BME280;27913;42.722;23.268;2023-01-31T04:27:22;94683.66;;;-1.65;92.15
42247;BME280;27913;42.722;23.268;2023-01-31T04:29:47;94677.81;;;-1.67;92.44
42247;BME280;27913;42.722;23.268;2023-01-31T04:32:13;94686.72;;;-1.71;93.21
42247;BME280;27913;42.722;23.268;2023-01-31T04:34:38;94665.97;;;-1.70;93.40
42247;BME280;27913;42.722;23.268;2023-01-31T04:37:04;94658.97;;;-1.90;93.36
42247;BME280;27913;42.722;23.268;2023-01-31T04:39:29;94693.28;;;-1.78;94.18
42247;BME280;27913;42.722;23.268;2023-01-31T04:41:55;94692.34;;;-1.77;94.48
42247;BME280;27913;42.722;23.268;2023-01-31T04:44:20;94615.53;;;-2.41;94.61
42247;BME280;27913;42.722;23.268;2023-01-31T04:46:46;94638.00;;;-2.20;95.26
42247;BME280;27913;42.722;23.268;2023-01-31T04:49:12;94496.81;;;-3.07;95.88
42247;BME280;27913;42.722;23.268;2023-01-31T04:51:38;94512.34;;;-2.97;96.42
42247;BME280;27913;42.722;23.268;2023-01-31T04:54:04;94582.75;;;-2.62;96.70
42247;BME280;27913;42.722;23.268;2023-01-31T04:56:29;94689.28;;;-1.83;97.18
42247;BME280;27913;42.722;23.268;2023-01-31T04:58:56;94645.38;;;-2.15;97.51
42247;BME280;27913;42.722;23.268;2023-01-31T05:01:23;94552.75;;;-2.63;98.01
42247;BME280;27913;42.722;23.268;2023-01-31T05:03:49;94510.13;;;-3.01;97.91
42247;BME280;27913;42.722;23.268;2023-01-31T05:06:15;94639.50;;;-2.17;97.87
42247;BME280;27913;42.722;23.268;2023-01-31T05:08:40;94704.06;;;-1.73;97.59
42247;BME280;27913;42.722;23.268;2023-01-31T05:11:06;94409.66;;;-3.46;97.07
42247;BME280;27913;42.722;23.268;2023-01-31T05:13:33;94600.88;;;-2.29;96.89
42247;BME280;27913;42.722;23.268;2023-01-31T05:16:06;94652.41;;;-2.06;96.74
42247;BME280;27913;42.722;23.268;2023-01-31T05:18:32;94718.59;;;-1.61;96.71
42247;BME280;27913;42.722;23.268;2023-01-31T05:20:59;94676.91;;;-2.00;96.79
42247;BME280;27913;42.722;23.268;2023-01-31T05:23:25;94713.06;;;-1.56;96.72
42247;BME280;27913;42.722;23.268;2023-01-31T05:25:50;94698.91;;;-1.62;96.88
42247;BME280;27913;42.722;23.268;2023-01-31T05:28:16;94660.25;;;-1.85;96.86
42247;BME280;27913;42.722;23.268;2023-01-31T05:30:42;94657.44;;;-1.93;97.13
42247;BME280;27913;42.722;23.268;2023-01-31T05:33:07;94712.28;;;-1.56;97.43
42247;BME280;27913;42.722;23.268;2023-01-31T05:35:32;94706.28;;;-1.57;97.27
42247;BME280;27913;42.722;23.268;2023-01-31T05:37:58;94649.09;;;-1.97;97.40
42247;BME280;27913;42.722;23.268;2023-01-31T05:40:24;94534.03;;;-2.65;97.58
42247;BME280;27913;42.722;23.268;2023-01-31T05:42:56;94679.22;;;-1.74;96.85
42247;BME280;27913;42.722;23.268;2023-01-31T05:45:24;94717.78;;;-1.50;96.83
42247;BME280;27913;42.722;23.268;2023-01-31T05:47:49;94725.38;;;-1.48;97.07
42247;BME280;27913;42.722;23.268;2023-01-31T05:50:16;94710.03;;;-1.61;96.81
42247;BME280;27913;42.722;23.268;2023-01-31T05:52:41;94680.16;;;-1.75;96.43
42247;BME280;27913;42.722;23.268;2023-01-31T05:55:07;94508.84;;;-2.84;96.11
42247;BME280;27913;42.722;23.268;2023-01-31T05:57:33;94675.25;;;-1.78;96.53
42247;BME280;27913;42.722;23.268;2023-01-31T05:59:58;94740.03;;;-1.37;96.77
42247;BME280;27913;42.722;23.268;2023-01-31T06:02:25;94631.91;;;-1.96;96.60
42247;BME280;27913;42.722;23.268;2023-01-31T06:04:50;94734.75;;;-1.36;96.90
42247;BME280;27913;42.722;23.268;2023-01-31T06:07:16;94658.59;;;-1.74;96.79
42247;BME280;27913;42.722;23.268;2023-01-31T06:09:41;94739.53;;;-1.31;97.04
42247;BME280;27913;42.722;23.268;2023-01-31T06:12:13;94650.75;;;-1.84;96.66
42247;BME280;27913;42.722;23.268;2023-01-31T06:14:39;94504.31;;;-2.69;96.65
42247;BME280;27913;42.722;23.268;2023-01-31T06:17:05;94667.97;;;-1.62;96.56
42247;BME280;27913;42.722;23.268;2023-01-31T06:19:30;94730.97;;;-1.20;96.60
42247;BME280;27913;42.722;23.268;2023-01-31T06:21:56;94680.75;;;-1.60;96.16
42247;BME280;27913;42.722;23.268;2023-01-31T06:24:21;94744.78;;;-1.21;96.90
42247;BME280;27913;42.722;23.268;2023-01-31T06:26:47;94678.84;;;-1.58;96.95
42247;BME280;27913;42.722;23.268;2023-01-31T06:29:13;94642.22;;;-1.85;97.28
42247;BME280;27913;42.722;23.268;2023-01-31T06:31:38;94740.72;;;-1.24;97.59
42247;BME280;27913;42.722;23.268;2023-01-31T06:34:04;94693.84;;;-1.63;97.76
42247;BME280;27913;42.722;23.268;2023-01-31T06:36:30;94742.34;;;-1.23;97.79
42247;BME280;27913;42.722;23.268;2023-01-31T06:38:56;94746.69;;;-1.23;97.49
42247;BME280;27913;42.722;23.268;2023-01-31T06:41:21;94687.75;;;-1.51;97.22
42247;BME280;27913;42.722;23.268;2023-01-31T06:43:47;94464.03;;;-2.93;96.67
42247;BME280;27913;42.722;23.268;2023-01-31T06:46:13;94632.81;;;-1.86;96.35
42247;BME280;27913;42.722;23.268;2023-01-31T06:48:38;94694.06;;;-1.43;96.66
42247;BME280;27913;42.722;23.268;2023-01-31T06:51:04;94695.72;;;-1.54;97.10
42247;BME280;27913;42.722;23.268;2023-01-31T06:53:29;94691.72;;;-1.47;97.41
42247;BME280;27913;42.722;23.268;2023-01-31T06:55:55;94689.28;;;-1.48;96.54
42247;BME280;27913;42.722;23.268;2023-01-31T06:58:20;94735.56;;;-1.24;96.38
42247;BME280;27913;42.722;23.268;2023-01-31T07:00:46;94747.69;;;-1.03;95.95
42247;BME280;27913;42.722;23.268;2023-01-31T07:03:12;94740.44;;;-1.09;95.51
42247;BME280;27913;42.722;23.268;2023-01-31T07:05:37;94652.25;;;-1.59;95.05
42247;BME280;27913;42.722;23.268;2023-01-31T07:08:03;94681.63;;;-1.38;94.96
42247;BME280;27913;42.722;23.268;2023-01-31T07:10:28;94749.19;;;-0.89;95.20
42247;BME280;27913;42.722;23.268;2023-01-31T07:12:54;94703.16;;;-1.28;95.29
42247;BME280;27913;42.722;23.268;2023-01-31T07:15:19;94530.50;;;-2.29;95.30
42247;BME280;27913;42.722;23.268;2023-01-31T07:17:45;94755.84;;;-0.86;95.45
42247;BME280;27913;42.722;23.268;2023-01-31T07:20:11;94692.84;;;-1.28;95.71
42247;BME280;27913;42.722;23.268;2023-01-31T07:22:36;94638.03;;;-1.53;95.90
42247;BME280;27913;42.722;23.268;2023-01-31T07:25:02;94765.72;;;-0.80;96.29
42247;BME280;27913;42.722;23.268;2023-01-31T07:27:27;94704.78;;;-1.15;96.59
42247;BME280;27913;42.722;23.268;2023-01-31T07:29:53;94775.59;;;-0.85;97.05
42247;BME280;27913;42.722;23.268;2023-01-31T07:32:18;94759.25;;;-0.86;97.55
42247;BME280;27913;42.722;23.268;2023-01-31T07:34:44;94766.66;;;-0.81;97.61
42247;BME280;27913;42.722;23.268;2023-01-31T07:37:10;94664.84;;;-1.44;97.60
42247;BME280;27913;42.722;23.268;2023-01-31T07:39:36;94772.63;;;-0.80;97.93
42247;BME280;27913;42.722;23.268;2023-01-31T07:42:01;94536.94;;;-2.24;97.71
42247;BME280;27913;42.722;23.268;2023-01-31T07:44:26;94781.91;;;-0.78;97.92
42247;BME280;27913;42.722;23.268;2023-01-31T07:46:52;94585.63;;;-1.98;98.03
42247;BME280;27913;42.722;23.268;2023-01-31T07:49:19;94720.53;;;-1.18;98.21
42247;BME280;27913;42.722;23.268;2023-01-31T07:51:44;94782.84;;;-0.79;98.27
42247;BME280;27913;42.722;23.268;2023-01-31T07:54:10;94769.00;;;-0.78;98.41
42247;BME280;27913;42.722;23.268;2023-01-31T07:56:36;94760.88;;;-0.73;98.38
42247;BME280;27913;42.722;23.268;2023-01-31T07:59:02;94770.50;;;-0.75;98.36
42247;BME280;27913;42.722;23.268;2023-01-31T08:01:28;94736.31;;;-1.00;98.71
42247;BME280;27913;42.722;23.268;2023-01-31T08:04:14;94490.00;;;-2.50;98.83
42247;BME280;27913;42.722;23.268;2023-01-31T08:06:41;94770.94;;;-0.70;99.20
42247;BME280;27913;42.722;23.268;2023-01-31T08:09:07;94774.81;;;-0.64;98.88
42247;BME280;27913;42.722;23.268;2023-01-31T08:11:33;94654.53;;;-1.32;98.55
42247;BME280;27913;42.722;23.268;2023-01-31T08:13:58;94729.47;;;-0.90;98.63
42247;BME280;27913;42.722;23.268;2023-01-31T08:16:24;94776.09;;;-0.58;99.25
42247;BME280;27913;42.722;23.268;2023-01-31T08:18:50;94722.19;;;-0.84;98.28
42247;BME280;27913;42.722;23.268;2023-01-31T08:21:17;94739.75;;;-0.78;97.95
42247;BME280;27913;42.722;23.268;2023-01-31T08:23:43;94776.47;;;-0.42;97.60
42247;BME280;27913;42.722;23.268;2023-01-31T08:26:16;94778.47;;;-0.45;97.39
42247;BME280;27913;42.722;23.268;2023-01-31T08:28:42;94718.09;;;-0.66;96.84
42247;BME280;27913;42.722;23.268;2023-01-31T08:31:17;94649.78;;;-0.94;95.93
42247;BME280;27913;42.722;23.268;2023-01-31T08:33:42;94767.34;;;-0.25;95.53
42247;BME280;27913;42.722;23.268;2023-01-31T08:36:10;94708.09;;;-0.59;95.20
42247;BME280;27913;42.722;23.268;2023-01-31T08:38:36;94612.13;;;-1.18;94.93
42247;BME280;27913;42.722;23.268;2023-01-31T08:41:02;94466.03;;;-2.07;95.53
42247;BME280;27913;42.722;23.268;2023-01-31T08:43:27;94762.06;;;-0.23;95.54
42247;BME280;27913;42.722;23.268;2023-01-31T08:45:53;94750.28;;;-0.37;96.23
42247;BME280;27913;42.722;23.268;2023-01-31T08:48:18;94763.06;;;-0.35;96.54
42247;BME280;27913;42.722;23.268;2023-01-31T08:50:44;94727.34;;;-0.63;96.77
42247;BME280;27913;42.722;23.268;2023-01-31T08:53:09;94519.75;;;-1.90;96.22
42247;BME280;27913;42.722;23.268;2023-01-31T08:55:45;94770.56;;;-0.32;96.43
42247;BME280;27913;42.722;23.268;2023-01-31T08:58:10;94760.94;;;-0.30;96.61
42247;BME280;27913;42.722;23.268;2023-01-31T09:00:36;94777.00;;;-0.27;96.18
42247;BME280;27913;42.722;23.268;2023-01-31T09:03:01;94676.94;;;-0.79;96.08
42247;BME280;27913;42.722;23.268;2023-01-31T09:05:28;94765.41;;;-0.11;95.99
42247;BME280;27913;42.722;23.268;2023-01-31T09:07:54;94771.81;;;-0.05;95.51
42247;BME280;27913;42.722;23.268;2023-01-31T09:10:20;94776.06;;;-0.04;94.68
42247;BME280;27913;42.722;23.268;2023-01-31T09:12:46;94765.59;;;-0.03;94.37
42247;BME280;27913;42.722;23.268;2023-01-31T09:15:12;94763.00;;;-0.03;93.78
42247;BME280;27913;42.722;23.268;2023-01-31T09:17:38;94623.09;;;-0.83;93.34
42247;BME280;27913;42.722;23.268;2023-01-31T09:20:05;94753.22;;;0.01;93.32
42247;BME280;27913;42.722;23.268;2023-01-31T09:22:35;94769.09;;;0.18;92.38
42247;BME280;27913;42.722;23.268;2023-01-31T09:25:02;94761.88;;;0.21;92.28
42247;BME280;27913;42.722;23.268;2023-01-31T09:27:28;94767.00;;;0.33;91.57
42247;BME280;27913;42.722;23.268;2023-01-31T09:29:53;94609.78;;;-0.57;91.16
42247;BME280;27913;42.722;23.268;2023-01-31T09:32:19;94648.97;;;-0.31;90.66
42247;BME280;27913;42.722;23.268;2023-01-31T09:34:46;94674.91;;;-0.11;90.37
42247;BME280;27913;42.722;23.268;2023-01-31T09:37:16;94745.06;;;0.37;90.44
42247;BME280;27913;42.722;23.268;2023-01-31T09:39:41;94741.56;;;0.38;90.60
42247;BME280;27913;42.722;23.268;2023-01-31T09:42:27;94739.66;;;0.40;90.89
42247;BME280;27913;42.722;23.268;2023-01-31T09:45:06;94522.78;;;-0.88;90.42
42247;BME280;27913;42.722;23.268;2023-01-31T09:47:41;94736.53;;;0.46;90.81
42247;BME280;27913;42.722;23.268;2023-01-31T09:50:30;94724.56;;;0.45;90.07
42247;BME280;27913;42.722;23.268;2023-01-31T09:52:59;94721.84;;;0.47;89.46
42247;BME280;27913;42.722;23.268;2023-01-31T09:55:39;94653.91;;;0.14;89.80
42247;BME280;27913;42.722;23.268;2023-01-31T10:00:53;94737.97;;;0.70;88.66
42247;BME280;27913;42.722;23.268;2023-01-31T10:08:42;94723.94;;;0.73;89.27
42247;BME280;27913;42.722;23.268;2023-01-31T10:11:15;94426.16;;;-1.17;89.38
42247;BME280;27913;42.722;23.268;2023-01-31T10:13:49;94620.16;;;0.15;88.85
42247;BME280;27913;42.722;23.268;2023-01-31T10:16:30;94703.66;;;0.78;89.58
42247;BME280;27913;42.722;23.268;2023-01-31T10:19:07;94687.72;;;0.73;89.25
42247;BME280;27913;42.722;23.268;2023-01-31T10:21:46;94700.66;;;0.83;88.40
42247;BME280;27913;42.722;23.268;2023-01-31T10:24:25;94626.66;;;0.60;87.61
42247;BME280;27913;42.722;23.268;2023-01-31T10:26:56;94607.53;;;0.32;87.08
42247;BME280;27913;42.722;23.268;2023-01-31T10:29:32;94706.41;;;0.96;86.59
42247;BME280;27913;42.722;23.268;2023-01-31T10:32:04;94690.19;;;1.04;86.38
42247;BME280;27913;42.722;23.268;2023-01-31T10:34:44;94696.59;;;1.10;87.56
42247;BME280;27913;42.722;23.268;2023-01-31T10:37:28;94620.09;;;0.56;86.57
42247;BME280;27913;42.722;23.268;2023-01-31T10:40:03;94586.69;;;0.23;87.14
42247;BME280;27913;42.722;23.268;2023-01-31T10:42:38;94698.66;;;0.96;87.26
42247;BME280;27913;42.722;23.268;2023-01-31T10:47:35;94692.91;;;1.13;87.62
42247;BME280;27913;42.722;23.268;2023-01-31T10:50:13;94696.06;;;1.06;86.86
42247;BME280;27913;42.722;23.268;2023-01-31T10:58:18;94562.19;;;0.47;85.93
42247;BME280;27913;42.722;23.268;2023-01-31T11:00:46;94689.66;;;1.30;86.72
42247;BME280;27913;42.722;23.268;2023-01-31T11:03:12;94542.56;;;0.05;85.57
42247;BME280;27913;42.722;23.268;2023-01-31T11:05:53;94646.41;;;0.81;86.65
42247;BME280;27913;42.722;23.268;2023-01-31T11:10:53;94531.25;;;-0.04;86.68
42247;BME280;27913;42.722;23.268;2023-01-31T11:13:19;94643.56;;;0.65;86.10
42247;BME280;27913;42.722;23.268;2023-01-31T11:15:45;94709.25;;;0.93;86.29
42247;BME280;27913;42.722;23.268;2023-01-31T11:18:33;94620.56;;;0.10;87.13
42247;BME280;27913;42.722;23.268;2023-01-31T11:21:01;94620.44;;;0.12;87.78
42247;BME280;27913;42.722;23.268;2023-01-31T11:23:30;94719.97;;;0.59;88.74
42247;BME280;27913;42.722;23.268;2023-01-31T11:25:58;94649.94;;;0.09;89.37
42247;BME280;27913;42.722;23.268;2023-01-31T11:30:53;94626.56;;;-0.20;91.61
42247;BME280;27913;42.722;23.268;2023-01-31T11:33:59;94717.56;;;0.36;92.03
42247;BME280;27913;42.722;23.268;2023-01-31T11:36:24;94657.75;;;-0.12;92.61
42247;BME280;27913;42.722;23.268;2023-01-31T11:38:52;94656.00;;;-0.11;93.02
42247;BME280;27913;42.722;23.268;2023-01-31T11:44:11;94704.81;;;0.13;94.78
42247;BME280;27913;42.722;23.268;2023-01-31T11:46:51;94687.63;;;0.02;94.90
42247;BME280;27913;42.722;23.268;2023-01-31T11:49:40;94572.84;;;-0.79;95.88
42247;BME280;27913;42.722;23.268;2023-01-31T11:52:18;94710.53;;;0.07;96.47
42247;BME280;27913;42.722;23.268;2023-01-31T11:54:59;94707.66;;;0.10;95.84
42247;BME280;27913;42.722;23.268;2023-01-31T11:57:30;94717.19;;;0.09;96.11
42247;BME280;27913;42.722;23.268;2023-01-31T11:59:58;94712.81;;;0.00;96.49
42247;BME280;27913;42.722;23.268;2023-01-31T12:02:38;94595.31;;;-0.70;96.56
42247;BME280;27913;42.722;23.268;2023-01-31T12:05:15;94605.72;;;-0.60;96.18
42247;BME280;27913;42.722;23.268;2023-01-31T12:07:45;94538.06;;;-0.97;96.79
42247;BME280;27913;42.722;23.268;2023-01-31T12:10:32;94686.81;;;0.02;97.01
42247;BME280;27913;42.722;23.268;2023-01-31T12:13:01;94691.03;;;0.03;95.73
42247;BME280;27913;42.722;23.268;2023-01-31T12:15:27;94554.56;;;-0.88;94.62
42247;BME280;27913;42.722;23.268;2023-01-31T12:17:54;94706.28;;;0.06;94.75
42247;BME280;27913;42.722;23.268;2023-01-31T12:20:38;94640.25;;;-0.30;94.21
42247;BME280;27913;42.722;23.268;2023-01-31T12:25:59;94533.59;;;-1.16;91.86
42247;BME280;27913;42.722;23.268;2023-01-31T12:31:10;94681.78;;;0.00;92.79
42247;BME280;27913;42.722;23.268;2023-01-31T12:34:06;94702.63;;;0.08;93.12
42247;BME280;27913;42.722;23.268;2023-01-31T12:36:42;94712.97;;;0.08;93.52
42247;BME280;27913;42.722;23.268;2023-01-31T12:50:26;94556.25;;;-0.77;92.35
42247;BME280;27913;42.722;23.268;2023-01-31T13:06:54;94582.41;;;-0.39;91.01
42247;BME280;27913;42.722;23.268;2023-01-31T13:09:31;94711.00;;;0.32;90.54
42247;BME280;27913;42.722;23.268;2023-01-31T13:12:20;94702.19;;;0.34;90.42
42247;BME280;27913;42.722;23.268;2023-01-31T13:14:56;94649.94;;;-0.01;90.20
42247;BME280;27913;42.722;23.268;2023-01-31T13:17:28;94706.97;;;0.39;89.96
42247;BME280;27913;42.722;23.268;2023-01-31T13:19:58;94628.09;;;-0.18;89.09
42247;BME280;27913;42.722;23.268;2023-01-31T13:22:27;94603.84;;;-0.27;89.34
42247;BME280;27913;42.722;23.268;2023-01-31T13:27:39;94613.25;;;-0.16;90.09
42247;BME280;27913;42.722;23.268;2023-01-31T13:30:16;94703.88;;;0.45;90.23
42247;BME280;27913;42.722;23.268;2023-01-31T13:32:48;94718.00;;;0.41;90.52
42247;BME280;27913;42.722;23.268;2023-01-31T13:35:17;94663.19;;;0.16;90.11
42247;BME280;27913;42.722;23.268;2023-01-31T13:37:47;94564.16;;;-0.47;90.25
42247;BME280;27913;42.722;23.268;2023-01-31T13:40:20;94648.19;;;0.10;90.07
42247;BME280;27913;42.722;23.268;2023-01-31T13:42:46;94532.41;;;-0.69;90.80
42247;BME280;27913;42.722;23.268;2023-01-31T13:45:30;94629.16;;;-0.20;90.29
42247;BME280;27913;42.722;23.268;2023-01-31T13:48:00;94657.72;;;0.09;89.96
42247;BME280;27913;42.722;23.268;2023-01-31T13:52:57;94613.25;;;-0.16;90.23
42247;BME280;27913;42.722;23.268;2023-01-31T13:55:40;94724.16;;;0.50;89.19
42247;BME280;27913;42.722;23.268;2023-01-31T13:58:21;94624.00;;;-0.10;88.83
42247;BME280;27913;42.722;23.268;2023-01-31T14:00:49;94591.41;;;-0.33;87.62
42247;BME280;27913;42.722;23.268;2023-01-31T14:03:23;94632.19;;;-0.05;87.11
42247;BME280;27913;42.722;23.268;2023-01-31T14:05:52;94698.78;;;0.34;87.17
42247;BME280;27913;42.722;23.268;2023-01-31T14:08:28;94682.66;;;0.20;87.62
42247;BME280;27913;42.722;23.268;2023-01-31T14:10:55;94629.13;;;-0.30;87.33
42247;BME280;27913;42.722;23.268;2023-01-31T14:15:57;94602.84;;;-0.35;87.79
42247;BME280;27913;42.722;23.268;2023-01-31T14:18:37;94653.97;;;-0.08;87.96
42247;BME280;27913;42.722;23.268;2023-01-31T14:23:58;94595.59;;;-0.42;87.25
42247;BME280;27913;42.722;23.268;2023-01-31T14:29:17;94681.13;;;0.08;88.25
42247;BME280;27913;42.722;23.268;2023-01-31T14:31:44;94648.88;;;-0.19;88.07
42247;BME280;27913;42.722;23.268;2023-01-31T14:34:24;94649.28;;;-0.24;88.28
42247;BME280;27913;42.722;23.268;2023-01-31T14:53:34;94658.00;;;-0.46;89.66
42247;BME280;27913;42.722;23.268;2023-01-31T14:56:39;94765.41;;;0.10;90.61
42247;BME280;27913;42.722;23.268;2023-01-31T14:59:25;94628.41;;;-0.85;91.15
42247;BME280;27913;42.722;23.268;2023-01-31T15:01:52;94755.63;;;-0.07;91.95
42247;BME280;27913;42.722;23.268;2023-01-31T15:04:21;94673.94;;;-0.63;91.93
42247;BME280;27913;42.722;23.268;2023-01-31T15:06:51;94750.38;;;-0.17;91.71